sensor_id;sensor_type;location;lat;lon;timestamp;pressure;altitude;pressure_sealevel;temperature;humidity
30463;BME280;17256;43.618;25.336;2023-11-22T00:00:28;100054.09;;;11.00;nan
30463;BME280;17256;43.618;25.336;2023-11-22T00:02:53;99912.50;;;10.20;nan
30463;BME280;17256;43.618;25.336;2023-11-22T00:05:19;99989.25;;;10.79;nan
30463;BME280;17256;43.618;25.336;2023-11-22T00:07:44;99932.78;;;10.32;nan
30463;BME280;17256;43.618;25.336;2023-11-22T00:10:10;99884.69;;;9.97;nan
30463;BME280;17256;43.618;25.336;2023-11-22T00:12:35;100047.16;;;10.91;nan
30463;BME280;17256;43.618;25.336;2023-11-22T00:15:04;99965.28;;;10.35;nan
30463;BME280;17256;43.618;25.336;2023-11-22T00:17:33;99976.25;;;10.48;nan
30463;BME280;17256;43.618;25.336;2023-11-22T00:20:00;99995.84;;;10.59;nan
30463;BME280;17256;43.618;25.336;2023-11-22T00:22:27;99935.72;;;10.04;nan
30463;BME280;17256;43.618;25.336;2023-11-22T00:24:53;99994.41;;;10.30;nan
30463;BME280;17256;43.618;25.336;2023-11-22T00:27:19;100008.34;;;10.35;nan
30463;BME280;17256;43.618;25.336;2023-11-22T00:29:44;99938.28;;;9.93;nan
30463;BME280;17256;43.618;25.336;2023-11-22T00:32:11;100014.25;;;10.38;nan
30463;BME280;17256;43.618;25.336;2023-11-22T00:34:37;99963.38;;;10.09;nan
30463;BME280;17256;43.618;25.336;2023-11-22T00:37:03;99997.16;;;10.30;nan
30463;BME280;17256;43.618;25.336;2023-11-22T00:39:28;99918.22;;;9.72;nan
30463;BME280;17256;43.618;25.336;2023-11-22T00:41:54;100025.00;;;10.40;nan
30463;BME280;17256;43.618;25.336;2023-11-22T00:44:21;100003.66;;;10.15;nan
30463;BME280;17256;43.618;25.336;2023-11-22T00:46:58;100045.06;;;10.40;nan
30463;BME280;17256;43.618;25.336;2023-11-22T00:49:24;99963.16;;;9.84;nan
30463;BME280;17256;43.618;25.336;2023-11-22T00:51:50;100054.78;;;10.36;nan
30463;BME280;17256;43.618;25.336;2023-11-22T00:54:19;100003.47;;;10.10;nan
30463;BME280;17256;43.618;25.336;2023-11-22T00:56:48;100034.13;;;10.21;nan
30463;BME280;17256;43.618;25.336;2023-11-22T00:59:13;99985.31;;;9.90;nan
30463;BME280;17256;43.618;25.336;2023-11-22T01:01:40;100008.97;;;10.04;nan
30463;BME280;17256;43.618;25.336;2023-11-22T01:04:06;100000.53;;;9.99;nan
30463;BME280;17256;43.618;25.336;2023-11-22T01:06:34;99984.25;;;9.84;nan
30463;BME280;17256;43.618;25.336;2023-11-22T01:09:00;100004.50;;;9.90;nan
30463;BME280;17256;43.618;25.336;2023-11-22T01:11:25;99948.81;;;9.69;nan
30463;BME280;17256;43.618;25.336;2023-11-22T01:13:51;99987.84;;;10.04;nan
30463;BME280;17256;43.618;25.336;2023-11-22T01:16:17;99991.44;;;9.98;nan
30463;BME280;17256;43.618;25.336;2023-11-22T01:18:42;99972.03;;;9.93;nan
30463;BME280;17256;43.618;25.336;2023-11-22T01:21:08;99942.47;;;9.82;nan
30463;BME280;17256;43.618;25.336;2023-11-22T01:23:34;99999.44;;;10.13;nan
30463;BME280;17256;43.618;25.336;2023-11-22T01:26:00;99884.28;;;9.47;nan
30463;BME280;17256;43.618;25.336;2023-11-22T01:28:29;100026.09;;;10.26;nan
30463;BME280;17256;43.618;25.336;2023-11-22T01:30:55;100037.72;;;10.21;nan
30463;BME280;17256;43.618;25.336;2023-11-22T01:33:24;100038.09;;;10.18;nan
30463;BME280;17256;43.618;25.336;2023-11-22T01:35:49;99997.34;;;9.95;nan
30463;BME280;17256;43.618;25.336;2023-11-22T01:38:16;100056.91;;;10.28;nan
30463;BME280;17256;43.618;25.336;2023-11-22T01:41:03;100058.59;;;10.35;nan
30463;BME280;17256;43.618;25.336;2023-11-22T01:43:29;100038.34;;;10.30;nan
30463;BME280;17256;43.618;25.336;2023-11-22T01:45:55;99984.69;;;9.81;nan
30463;BME280;17256;43.618;25.336;2023-11-22T01:48:21;100014.66;;;9.96;nan
30463;BME280;17256;43.618;25.336;2023-11-22T01:50:47;99996.91;;;9.85;nan
30463;BME280;17256;43.618;25.336;2023-11-22T01:53:14;99918.00;;;9.54;nan
30463;BME280;17256;43.618;25.336;2023-11-22T01:55:42;100031.94;;;10.09;nan
30463;BME280;17256;43.618;25.336;2023-11-22T01:58:09;99925.56;;;9.39;nan
30463;BME280;17256;43.618;25.336;2023-11-22T02:00:36;100048.41;;;10.16;nan
30463;BME280;17256;43.618;25.336;2023-11-22T02:03:06;99992.91;;;10.01;nan
30463;BME280;17256;43.618;25.336;2023-11-22T02:05:32;99955.56;;;9.80;nan
30463;BME280;17256;43.618;25.336;2023-11-22T02:07:58;100003.25;;;10.05;nan
30463;BME280;17256;43.618;25.336;2023-11-22T02:10:24;100043.78;;;10.10;nan
30463;BME280;17256;43.618;25.336;2023-11-22T02:12:50;99986.38;;;9.75;nan
30463;BME280;17256;43.618;25.336;2023-11-22T02:15:15;99952.75;;;9.27;nan
30463;BME280;17256;43.618;25.336;2023-11-22T02:17:41;99928.09;;;9.27;nan
30463;BME280;17256;43.618;25.336;2023-11-22T02:20:07;99996.06;;;9.71;nan
30463;BME280;17256;43.618;25.336;2023-11-22T02:22:43;99999.84;;;9.83;nan
30463;BME280;17256;43.618;25.336;2023-11-22T02:25:09;100046.50;;;10.10;nan
30463;BME280;17256;43.618;25.336;2023-11-22T02:27:36;100042.94;;;10.03;nan
30463;BME280;17256;43.618;25.336;2023-11-22T02:30:03;100007.06;;;9.98;nan
30463;BME280;17256;43.618;25.336;2023-11-22T02:32:31;100045.03;;;10.01;nan
30463;BME280;17256;43.618;25.336;2023-11-22T02:34:57;99965.66;;;9.60;nan
30463;BME280;17256;43.618;25.336;2023-11-22T02:37:22;99987.63;;;9.73;nan
30463;BME280;17256;43.618;25.336;2023-11-22T02:40:21;100048.84;;;10.06;nan
30463;BME280;17256;43.618;25.336;2023-11-22T02:42:47;99901.47;;;9.14;nan
30463;BME280;17256;43.618;25.336;2023-11-22T02:45:14;100035.94;;;9.80;nan
30463;BME280;17256;43.618;25.336;2023-11-22T02:47:40;99976.19;;;9.56;nan
30463;BME280;17256;43.618;25.336;2023-11-22T02:50:06;100064.47;;;10.06;nan
30463;BME280;17256;43.618;25.336;2023-11-22T02:52:32;100035.50;;;9.90;nan
30463;BME280;17256;43.618;25.336;2023-11-22T02:54:58;100064.47;;;10.06;nan
30463;BME280;17256;43.618;25.336;2023-11-22T02:57:24;100059.41;;;10.03;nan
30463;BME280;17256;43.618;25.336;2023-11-22T02:59:51;100020.13;;;9.82;nan
30463;BME280;17256;43.618;25.336;2023-11-22T03:02:17;100017.16;;;9.77;nan
30463;BME280;17256;43.618;25.336;2023-11-22T03:04:43;99952.56;;;9.42;nan
30463;BME280;17256;43.618;25.336;2023-11-22T03:07:09;100024.75;;;9.82;nan
30463;BME280;17256;43.618;25.336;2023-11-22T03:09:35;99983.78;;;9.54;nan
30463;BME280;17256;43.618;25.336;2023-11-22T03:12:02;100055.97;;;9.87;nan
30463;BME280;17256;43.618;25.336;2023-11-22T03:14:28;100043.31;;;9.73;nan
30463;BME280;17256;43.618;25.336;2023-11-22T03:17:21;100072.63;;;9.79;nan
30463;BME280;17256;43.618;25.336;2023-11-22T03:19:47;100072.84;;;9.84;nan
30463;BME280;17256;43.618;25.336;2023-11-22T03:22:13;100022.56;;;9.44;nan
30463;BME280;17256;43.618;25.336;2023-11-22T03:24:38;100019.19;;;9.42;nan
30463;BME280;17256;43.618;25.336;2023-11-22T03:27:04;99993.84;;;9.34;nan
30463;BME280;17256;43.618;25.336;2023-11-22T03:29:31;100002.94;;;9.41;nan
30463;BME280;17256;43.618;25.336;2023-11-22T03:31:56;100024.47;;;9.44;nan
30463;BME280;17256;43.618;25.336;2023-11-22T03:34:22;100041.13;;;9.42;nan
30463;BME280;17256;43.618;25.336;2023-11-22T03:36:47;100019.16;;;9.36;nan
30463;BME280;17256;43.618;25.336;2023-11-22T03:39:15;100057.16;;;9.52;nan
30463;BME280;17256;43.618;25.336;2023-11-22T03:41:41;99907.47;;;8.70;nan
30463;BME280;17256;43.618;25.336;2023-11-22T03:44:08;100053.38;;;9.60;nan
30463;BME280;17256;43.618;25.336;2023-11-22T03:46:35;100014.94;;;9.33;nan
30463;BME280;17256;43.618;25.336;2023-11-22T03:49:05;99934.69;;;8.85;nan
30463;BME280;17256;43.618;25.336;2023-11-22T03:51:38;100019.97;;;9.30;nan
30463;BME280;17256;43.618;25.336;2023-11-22T03:54:04;100063.50;;;9.52;nan
30463;BME280;17256;43.618;25.336;2023-11-22T03:56:31;100030.94;;;9.30;nan
30463;BME280;17256;43.618;25.336;2023-11-22T03:58:56;99959.94;;;8.80;nan
30463;BME280;17256;43.618;25.336;2023-11-22T04:01:22;100008.53;;;9.13;nan
30463;BME280;17256;43.618;25.336;2023-11-22T04:03:48;100061.78;;;9.45;nan
30463;BME280;17256;43.618;25.336;2023-11-22T04:06:17;100082.91;;;9.57;nan
30463;BME280;17256;43.618;25.336;2023-11-22T04:08:44;100022.72;;;9.30;nan
30463;BME280;17256;43.618;25.336;2023-11-22T04:11:12;100034.13;;;9.33;nan
30463;BME280;17256;43.618;25.336;2023-11-22T04:13:38;100077.19;;;9.46;nan
30463;BME280;17256;43.618;25.336;2023-11-22T04:16:04;100060.00;;;9.24;nan
30463;BME280;17256;43.618;25.336;2023-11-22T04:18:32;100046.94;;;9.19;nan
30463;BME280;17256;43.618;25.336;2023-11-22T04:20:58;100084.75;;;9.44;nan
30463;BME280;17256;43.618;25.336;2023-11-22T04:23:26;100036.34;;;9.16;nan
30463;BME280;17256;43.618;25.336;2023-11-22T04:25:51;100082.41;;;9.41;nan
30463;BME280;17256;43.618;25.336;2023-11-22T04:28:17;100096.38;;;9.52;nan
30463;BME280;17256;43.618;25.336;2023-11-22T04:30:43;100055.38;;;9.24;nan
30463;BME280;17256;43.618;25.336;2023-11-22T04:33:09;100068.47;;;9.29;nan
30463;BME280;17256;43.618;25.336;2023-11-22T04:35:34;99985.09;;;8.62;nan
30463;BME280;17256;43.618;25.336;2023-11-22T04:38:02;100124.97;;;9.37;nan
30463;BME280;17256;43.618;25.336;2023-11-22T04:40:29;100038.09;;;8.89;nan
30463;BME280;17256;43.618;25.336;2023-11-22T04:42:55;100119.28;;;9.38;nan
30463;BME280;17256;43.618;25.336;2023-11-22T04:45:20;100023.31;;;8.77;nan
30463;BME280;17256;43.618;25.336;2023-11-22T04:47:46;100053.69;;;8.89;nan
30463;BME280;17256;43.618;25.336;2023-11-22T04:50:11;100098.25;;;9.04;nan
30463;BME280;17256;43.618;25.336;2023-11-22T04:52:37;100013.69;;;8.53;nan
30463;BME280;17256;43.618;25.336;2023-11-22T04:55:03;100124.00;;;9.16;nan
30463;BME280;17256;43.618;25.336;2023-11-22T04:57:29;100126.59;;;9.24;nan
30463;BME280;17256;43.618;25.336;2023-11-22T04:59:55;100088.34;;;9.03;nan
30463;BME280;17256;43.618;25.336;2023-11-22T05:02:21;100146.06;;;9.36;nan
30463;BME280;17256;43.618;25.336;2023-11-22T05:04:46;100077.75;;;8.93;nan
30463;BME280;17256;43.618;25.336;2023-11-22T05:07:14;100100.16;;;9.04;nan
30463;BME280;17256;43.618;25.336;2023-11-22T05:09:40;100113.91;;;9.17;nan
30463;BME280;17256;43.618;25.336;2023-11-22T05:12:06;100124.19;;;9.08;nan
30463;BME280;17256;43.618;25.336;2023-11-22T05:14:32;100086.16;;;8.92;nan
30463;BME280;17256;43.618;25.336;2023-11-22T05:16:57;100083.38;;;8.85;nan
30463;BME280;17256;43.618;25.336;2023-11-22T05:19:24;99993.06;;;8.29;nan
30463;BME280;17256;43.618;25.336;2023-11-22T05:21:49;100121.38;;;8.95;nan
30463;BME280;17256;43.618;25.336;2023-11-22T05:24:15;100100.09;;;8.97;nan
30463;BME280;17256;43.618;25.336;2023-11-22T05:26:40;100114.22;;;8.94;nan
30463;BME280;17256;43.618;25.336;2023-11-22T05:29:06;100124.78;;;9.04;nan
30463;BME280;17256;43.618;25.336;2023-11-22T05:31:32;100167.00;;;9.16;nan
30463;BME280;17256;43.618;25.336;2023-11-22T05:33:57;100032.16;;;8.45;nan
30463;BME280;17256;43.618;25.336;2023-11-22T05:36:23;100060.50;;;8.65;nan
30463;BME280;17256;43.618;25.336;2023-11-22T05:38:48;100132.59;;;9.07;nan
30463;BME280;17256;43.618;25.336;2023-11-22T05:41:15;100090.53;;;8.86;nan
30463;BME280;17256;43.618;25.336;2023-11-22T05:43:41;100051.41;;;8.58;nan
30463;BME280;17256;43.618;25.336;2023-11-22T05:46:08;100094.19;;;8.66;nan
30463;BME280;17256;43.618;25.336;2023-11-22T05:48:34;100157.06;;;9.08;nan
30463;BME280;17256;43.618;25.336;2023-11-22T05:50:59;100100.19;;;8.76;nan
30463;BME280;17256;43.618;25.336;2023-11-22T05:53:25;100173.69;;;9.07;nan
30463;BME280;17256;43.618;25.336;2023-11-22T05:55:51;100067.34;;;8.48;nan
30463;BME280;17256;43.618;25.336;2023-11-22T05:58:18;100121.19;;;8.69;nan
30463;BME280;17256;43.618;25.336;2023-11-22T06:00:44;100219.78;;;9.24;nan
30463;BME280;17256;43.618;25.336;2023-11-22T06:03:11;100194.34;;;9.09;nan
30463;BME280;17256;43.618;25.336;2023-11-22T06:05:36;100127.59;;;8.54;nan
30463;BME280;17256;43.618;25.336;2023-11-22T06:08:02;100158.97;;;8.80;nan
30463;BME280;17256;43.618;25.336;2023-11-22T06:10:28;100157.88;;;8.74;nan
30463;BME280;17256;43.618;25.336;2023-11-22T06:12:54;100207.13;;;8.96;nan
30463;BME280;17256;43.618;25.336;2023-11-22T06:15:19;100170.72;;;8.74;nan
30463;BME280;17256;43.618;25.336;2023-11-22T06:17:47;100232.94;;;9.14;nan
30463;BME280;17256;43.618;25.336;2023-11-22T06:20:14;100249.50;;;9.28;nan
30463;BME280;17256;43.618;25.336;2023-11-22T06:22:40;100231.22;;;9.07;nan
30463;BME280;17256;43.618;25.336;2023-11-22T06:25:16;100237.13;;;9.10;nan
30463;BME280;17256;43.618;25.336;2023-11-22T06:27:42;100159.84;;;8.59;nan
30463;BME280;17256;43.618;25.336;2023-11-22T06:30:07;100228.63;;;8.99;nan
30463;BME280;17256;43.618;25.336;2023-11-22T06:32:34;100268.94;;;9.33;nan
30463;BME280;17256;43.618;25.336;2023-11-22T06:35:00;100282.31;;;9.42;nan
30463;BME280;17256;43.618;25.336;2023-11-22T06:37:25;100250.19;;;9.08;nan
30463;BME280;17256;43.618;25.336;2023-11-22T06:39:51;100237.66;;;8.92;nan
30463;BME280;17256;43.618;25.336;2023-11-22T06:42:17;100249.25;;;8.94;nan
30463;BME280;17256;43.618;25.336;2023-11-22T06:44:44;100254.56;;;9.03;nan
30463;BME280;17256;43.618;25.336;2023-11-22T06:47:13;100282.16;;;9.22;nan
30463;BME280;17256;43.618;25.336;2023-11-22T06:49:39;100273.28;;;9.20;nan
30463;BME280;17256;43.618;25.336;2023-11-22T06:52:04;100246.22;;;9.11;nan
30463;BME280;17256;43.618;25.336;2023-11-22T06:54:30;100258.41;;;9.08;nan
30463;BME280;17256;43.618;25.336;2023-11-22T06:56:56;100300.28;;;9.51;nan
30463;BME280;17256;43.618;25.336;2023-11-22T06:59:22;100242.88;;;9.15;nan
30463;BME280;17256;43.618;25.336;2023-11-22T07:01:48;100335.56;;;9.61;nan
30463;BME280;17256;43.618;25.336;2023-11-22T07:04:14;100268.88;;;9.26;nan
30463;BME280;17256;43.618;25.336;2023-11-22T07:06:39;100290.22;;;9.31;nan
30463;BME280;17256;43.618;25.336;2023-11-22T07:09:05;100250.84;;;9.10;nan
30463;BME280;17256;43.618;25.336;2023-11-22T07:11:31;100247.44;;;9.08;nan
30463;BME280;17256;43.618;25.336;2023-11-22T07:13:56;100218.66;;;8.91;nan
30463;BME280;17256;43.618;25.336;2023-11-22T07:16:23;100283.44;;;9.27;nan
30463;BME280;17256;43.618;25.336;2023-11-22T07:18:50;100308.88;;;9.42;nan
30463;BME280;17256;43.618;25.336;2023-11-22T07:21:16;100340.28;;;9.67;nan
30463;BME280;17256;43.618;25.336;2023-11-22T07:23:42;100243.81;;;9.01;nan
30463;BME280;17256;43.618;25.336;2023-11-22T07:26:10;100283.22;;;9.28;nan
30463;BME280;17256;43.618;25.336;2023-11-22T07:28:36;100353.69;;;9.62;nan
30463;BME280;17256;43.618;25.336;2023-11-22T07:31:02;100352.94;;;9.68;nan
30463;BME280;17256;43.618;25.336;2023-11-22T07:33:31;100347.03;;;9.71;nan
30463;BME280;17256;43.618;25.336;2023-11-22T07:35:56;100295.88;;;9.29;nan
30463;BME280;17256;43.618;25.336;2023-11-22T07:38:24;100319.44;;;9.45;nan
30463;BME280;17256;43.618;25.336;2023-11-22T07:40:50;100360.94;;;9.70;nan
30463;BME280;17256;43.618;25.336;2023-11-22T07:43:17;100364.25;;;9.65;nan
30463;BME280;17256;43.618;25.336;2023-11-22T07:46:06;100368.97;;;9.71;nan
30463;BME280;17256;43.618;25.336;2023-11-22T07:48:33;100357.91;;;9.58;nan
30463;BME280;17256;43.618;25.336;2023-11-22T07:51:02;100288.16;;;8.90;nan
30463;BME280;17256;43.618;25.336;2023-11-22T07:53:27;100386.75;;;9.54;nan
30463;BME280;17256;43.618;25.336;2023-11-22T07:55:54;100323.50;;;9.28;nan
30463;BME280;17256;43.618;25.336;2023-11-22T07:58:20;100378.53;;;9.54;nan
30463;BME280;17256;43.618;25.336;2023-11-22T08:00:45;100296.69;;;9.23;nan
30463;BME280;17256;43.618;25.336;2023-11-22T08:03:11;100345.16;;;9.44;nan
30463;BME280;17256;43.618;25.336;2023-11-22T08:05:40;100304.31;;;9.28;nan
30463;BME280;17256;43.618;25.336;2023-11-22T08:08:06;100403.47;;;9.87;nan
30463;BME280;17256;43.618;25.336;2023-11-22T08:10:36;100381.91;;;9.56;nan
30463;BME280;17256;43.618;25.336;2023-11-22T08:13:03;100376.47;;;9.63;nan
30463;BME280;17256;43.618;25.336;2023-11-22T08:15:29;100316.28;;;9.20;nan
30463;BME280;17256;43.618;25.336;2023-11-22T08:17:57;100381.53;;;9.38;nan
30463;BME280;17256;43.618;25.336;2023-11-22T08:20:24;100290.00;;;9.04;nan
30463;BME280;17256;43.618;25.336;2023-11-22T08:22:51;100357.41;;;9.48;nan
30463;BME280;17256;43.618;25.336;2023-11-22T08:25:17;100319.00;;;9.20;nan
30463;BME280;17256;43.618;25.336;2023-11-22T08:27:42;100223.78;;;8.73;nan
30463;BME280;17256;43.618;25.336;2023-11-22T08:30:09;100347.97;;;9.57;nan
30463;BME280;17256;43.618;25.336;2023-11-22T08:32:42;100341.75;;;9.42;nan
30463;BME280;17256;43.618;25.336;2023-11-22T08:35:10;100412.63;;;9.94;nan
30463;BME280;17256;43.618;25.336;2023-11-22T08:37:35;100423.78;;;9.93;nan
30463;BME280;17256;43.618;25.336;2023-11-22T08:40:07;100374.88;;;9.68;nan
30463;BME280;17256;43.618;25.336;2023-11-22T08:42:34;100380.34;;;9.68;nan
30463;BME280;17256;43.618;25.336;2023-11-22T08:45:02;100365.09;;;9.38;nan
30463;BME280;17256;43.618;25.336;2023-11-22T08:47:28;100452.34;;;10.05;nan
30463;BME280;17256;43.618;25.336;2023-11-22T08:49:54;100413.88;;;9.92;nan
30463;BME280;17256;43.618;25.336;2023-11-22T08:52:20;100323.78;;;9.39;nan
30463;BME280;17256;43.618;25.336;2023-11-22T08:54:45;100338.06;;;9.56;nan
30463;BME280;17256;43.618;25.336;2023-11-22T08:57:11;100433.47;;;10.16;nan
30463;BME280;17256;43.618;25.336;2023-11-22T08:59:37;100413.47;;;9.95;nan
30463;BME280;17256;43.618;25.336;2023-11-22T09:02:06;100437.59;;;10.06;nan
30463;BME280;17256;43.618;25.336;2023-11-22T09:04:41;100445.94;;;10.19;nan
30463;BME280;17256;43.618;25.336;2023-11-22T09:07:07;100426.53;;;9.93;nan
30463;BME280;17256;43.618;25.336;2023-11-22T09:09:33;100402.66;;;9.65;nan
30463;BME280;17256;43.618;25.336;2023-11-22T09:12:00;100417.25;;;9.94;nan
30463;BME280;17256;43.618;25.336;2023-11-22T09:14:26;100416.09;;;9.81;nan
30463;BME280;17256;43.618;25.336;2023-11-22T09:16:52;100463.03;;;9.93;nan
30463;BME280;17256;43.618;25.336;2023-11-22T09:19:24;100430.59;;;9.75;nan
30463;BME280;17256;43.618;25.336;2023-11-22T09:21:51;100390.91;;;9.71;nan
30463;BME280;17256;43.618;25.336;2023-11-22T09:24:16;100450.16;;;9.94;nan
30463;BME280;17256;43.618;25.336;2023-11-22T09:26:42;100423.06;;;9.84;nan
30463;BME280;17256;43.618;25.336;2023-11-22T09:29:10;100440.72;;;10.03;nan
30463;BME280;17256;43.618;25.336;2023-11-22T09:31:39;100438.72;;;9.90;nan
30463;BME280;17256;43.618;25.336;2023-11-22T09:34:05;100401.69;;;9.73;nan
30463;BME280;17256;43.618;25.336;2023-11-22T09:36:31;100452.41;;;10.11;nan
30463;BME280;17256;43.618;25.336;2023-11-22T09:38:59;100420.56;;;9.89;nan
30463;BME280;17256;43.618;25.336;2023-11-22T09:41:25;100372.03;;;9.62;nan
30463;BME280;17256;43.618;25.336;2023-11-22T09:43:53;100364.47;;;9.64;nan
30463;BME280;17256;43.618;25.336;2023-11-22T09:46:20;100436.34;;;10.08;nan
30463;BME280;17256;43.618;25.336;2023-11-22T09:48:48;100428.31;;;10.07;nan
30463;BME280;17256;43.618;25.336;2023-11-22T09:51:23;100386.53;;;9.77;nan
30463;BME280;17256;43.618;25.336;2023-11-22T09:56:23;100375.16;;;9.52;nan
30463;BME280;17256;43.618;25.336;2023-11-22T09:58:52;100418.53;;;9.70;nan
30463;BME280;17256;43.618;25.336;2023-11-22T10:01:22;100393.78;;;9.63;nan
30463;BME280;17256;43.618;25.336;2023-11-22T10:03:48;100428.56;;;9.84;nan
30463;BME280;17256;43.618;25.336;2023-11-22T10:06:14;100413.06;;;9.70;nan
30463;BME280;17256;43.618;25.336;2023-11-22T10:08:40;100407.81;;;9.75;nan
30463;BME280;17256;43.618;25.336;2023-11-22T10:11:06;100450.69;;;10.10;nan
30463;BME280;17256;43.618;25.336;2023-11-22T10:13:33;100411.91;;;9.85;nan
30463;BME280;17256;43.618;25.336;2023-11-22T10:16:13;100437.34;;;10.01;nan
30463;BME280;17256;43.618;25.336;2023-11-22T10:18:48;100468.63;;;10.06;nan
30463;BME280;17256;43.618;25.336;2023-11-22T10:21:22;100467.59;;;10.14;nan
30463;BME280;17256;43.618;25.336;2023-11-22T10:23:53;100478.34;;;10.09;nan
30463;BME280;17256;43.618;25.336;2023-11-22T10:26:19;100458.44;;;10.00;nan
30463;BME280;17256;43.618;25.336;2023-11-22T10:28:45;100451.25;;;9.99;nan
30463;BME280;17256;43.618;25.336;2023-11-22T10:31:11;100456.53;;;10.01;nan
30463;BME280;17256;43.618;25.336;2023-11-22T10:33:40;100475.78;;;10.29;nan
30463;BME280;17256;43.618;25.336;2023-11-22T10:36:16;100441.94;;;9.94;nan
30463;BME280;17256;43.618;25.336;2023-11-22T10:38:56;100474.28;;;10.26;nan
30463;BME280;17256;43.618;25.336;2023-11-22T10:41:23;100327.84;;;9.43;nan
30463;BME280;17256;43.618;25.336;2023-11-22T10:43:53;100493.97;;;10.36;nan
30463;BME280;17256;43.618;25.336;2023-11-22T10:46:21;100450.06;;;10.08;nan
30463;BME280;17256;43.618;25.336;2023-11-22T10:48:50;100474.03;;;10.21;nan
30463;BME280;17256;43.618;25.336;2023-11-22T10:51:15;100426.78;;;9.98;nan
30463;BME280;17256;43.618;25.336;2023-11-22T10:53:48;100452.00;;;10.14;nan
30463;BME280;17256;43.618;25.336;2023-11-22T10:56:19;100429.13;;;10.01;nan
30463;BME280;17256;43.618;25.336;2023-11-22T10:58:57;100455.47;;;10.23;nan
30463;BME280;17256;43.618;25.336;2023-11-22T11:01:26;100235.16;;;8.98;nan
30463;BME280;17256;43.618;25.336;2023-11-22T11:04:15;100467.38;;;10.37;nan
30463;BME280;17256;43.618;25.336;2023-11-22T11:06:44;100495.53;;;10.45;nan
30463;BME280;17256;43.618;25.336;2023-11-22T11:09:12;100499.13;;;10.46;nan
30463;BME280;17256;43.618;25.336;2023-11-22T11:11:40;100387.97;;;9.73;nan
30463;BME280;17256;43.618;25.336;2023-11-22T11:14:08;100484.22;;;10.27;nan
30463;BME280;17256;43.618;25.336;2023-11-22T11:16:38;100453.66;;;10.09;nan
30463;BME280;17256;43.618;25.336;2023-11-22T11:19:04;100511.94;;;10.39;nan
30463;BME280;17256;43.618;25.336;2023-11-22T11:21:33;100487.16;;;10.26;nan
30463;BME280;17256;43.618;25.336;2023-11-22T11:23:58;100447.56;;;10.13;nan
30463;BME280;17256;43.618;25.336;2023-11-22T11:26:28;100459.16;;;10.15;nan
30463;BME280;17256;43.618;25.336;2023-11-22T11:28:54;100474.41;;;10.18;nan
30463;BME280;17256;43.618;25.336;2023-11-22T11:31:23;100525.56;;;10.54;nan
30463;BME280;17256;43.618;25.336;2023-11-22T11:36:23;100525.38;;;10.55;nan
30463;BME280;17256;43.618;25.336;2023-11-22T11:38:49;100503.47;;;10.34;nan
30463;BME280;17256;43.618;25.336;2023-11-22T11:41:16;100450.25;;;10.07;nan
30463;BME280;17256;43.618;25.336;2023-11-22T11:43:46;100417.09;;;9.74;nan
30463;BME280;17256;43.618;25.336;2023-11-22T11:46:14;100487.19;;;10.32;nan
30463;BME280;17256;43.618;25.336;2023-11-22T11:48:45;100525.16;;;10.57;nan
30463;BME280;17256;43.618;25.336;2023-11-22T11:51:16;100479.38;;;10.29;nan
30463;BME280;17256;43.618;25.336;2023-11-22T11:53:43;100470.63;;;10.19;nan
30463;BME280;17256;43.618;25.336;2023-11-22T11:56:10;100540.34;;;10.53;nan
30463;BME280;17256;43.618;25.336;2023-11-22T11:58:35;100539.88;;;10.42;nan
30463;BME280;17256;43.618;25.336;2023-11-22T12:01:01;100412.78;;;9.65;nan
30463;BME280;17256;43.618;25.336;2023-11-22T12:03:28;100535.59;;;10.40;nan
30463;BME280;17256;43.618;25.336;2023-11-22T12:05:53;100544.44;;;10.35;nan
30463;BME280;17256;43.618;25.336;2023-11-22T12:08:19;100416.97;;;9.61;nan
30463;BME280;17256;43.618;25.336;2023-11-22T12:10:45;100489.22;;;9.96;nan
30463;BME280;17256;43.618;25.336;2023-11-22T12:13:18;100500.88;;;10.04;nan
30463;BME280;17256;43.618;25.336;2023-11-22T12:15:44;100472.00;;;9.80;nan
30463;BME280;17256;43.618;25.336;2023-11-22T12:18:09;100529.56;;;10.02;nan
30463;BME280;17256;43.618;25.336;2023-11-22T12:23:47;100525.28;;;9.93;nan
30463;BME280;17256;43.618;25.336;2023-11-22T12:26:14;100514.47;;;9.91;nan
30463;BME280;17256;43.618;25.336;2023-11-22T12:28:55;100520.69;;;10.00;nan
30463;BME280;17256;43.618;25.336;2023-11-22T12:31:21;100520.25;;;9.96;nan
30463;BME280;17256;43.618;25.336;2023-11-22T12:33:46;100498.50;;;9.73;nan
30463;BME280;17256;43.618;25.336;2023-11-22T12:36:13;100309.41;;;8.67;nan
30463;BME280;17256;43.618;25.336;2023-11-22T12:38:41;100538.41;;;9.97;nan
30463;BME280;17256;43.618;25.336;2023-11-22T12:41:07;100545.13;;;9.95;nan
30463;BME280;17256;43.618;25.336;2023-11-22T12:43:33;100568.50;;;10.12;nan
30463;BME280;17256;43.618;25.336;2023-11-22T12:46:06;100566.41;;;10.14;nan
30463;BME280;17256;43.618;25.336;2023-11-22T12:48:32;100524.16;;;9.66;nan
30463;BME280;17256;43.618;25.336;2023-11-22T12:50:59;100542.13;;;9.68;nan
30463;BME280;17256;43.618;25.336;2023-11-22T12:53:26;100581.19;;;9.92;nan
30463;BME280;17256;43.618;25.336;2023-11-22T12:55:55;100530.41;;;9.60;nan
30463;BME280;17256;43.618;25.336;2023-11-22T12:58:22;100605.09;;;9.98;nan
30463;BME280;17256;43.618;25.336;2023-11-22T13:00:50;100591.13;;;9.93;nan
30463;BME280;17256;43.618;25.336;2023-11-22T13:03:16;100543.09;;;9.61;nan
30463;BME280;17256;43.618;25.336;2023-11-22T13:05:43;100607.44;;;10.01;nan
30463;BME280;17256;43.618;25.336;2023-11-22T13:08:13;100596.13;;;9.89;nan
30463;BME280;17256;43.618;25.336;2023-11-22T13:10:46;100614.38;;;9.97;nan
30463;BME280;17256;43.618;25.336;2023-11-22T13:13:13;100486.03;;;9.13;nan
30463;BME280;17256;43.618;25.336;2023-11-22T13:15:39;100588.56;;;9.70;nan
30463;BME280;17256;43.618;25.336;2023-11-22T13:18:06;100635.00;;;9.93;nan